createdAt,value
2023-10-07T00:01:00.905Z,11.27
2023-10-07T00:03:27.767Z,9.65
2023-10-07T00:06:01.604Z,11.82
2023-10-07T00:08:29.436Z,9.02
2023-10-07T00:11:00.024Z,10.15
2023-10-07T00:13:35.601Z,9.07
2023-10-07T00:16:02.305Z,11.75
2023-10-07T00:18:29.317Z,11.98
2023-10-07T00:20:56.765Z,12.60
2023-10-07T00:23:27.407Z,11.10
2023-10-07T00:25:56.127Z,12.75
2023-10-07T00:28:33.821Z,13.20
2023-10-07T00:31:04.693Z,12.73
2023-10-07T00:33:38.944Z,14.38
2023-10-07T00:36:06.833Z,9.13
2023-10-07T00:38:39.093Z,9.40
2023-10-07T00:41:05.852Z,15.30
2023-10-07T00:43:32.587Z,14.07
2023-10-07T00:46:12.546Z,14.68
2023-10-07T00:48:44.351Z,17.80
2023-10-07T00:51:13.496Z,14.52
2023-10-07T00:53:46.437Z,19.70
2023-10-07T00:56:17.688Z,14.65
2023-10-07T00:58:48.149Z,15.15
2023-10-07T01:01:15.844Z,17.95
2023-10-07T01:03:57.187Z,18.10
2023-10-07T01:06:26.819Z,16.75
2023-10-07T01:09:08.993Z,15.63
2023-10-07T01:11:41.192Z,20.05
2023-10-07T01:14:13.144Z,17.35
2023-10-07T01:16:44.295Z,10.93
2023-10-07T01:19:13.372Z,8.63
2023-10-07T01:21:57.132Z,8.35
2023-10-07T01:24:45.173Z,9.02
2023-10-07T01:27:30.141Z,7.70
2023-10-07T01:30:08.291Z,9.90
2023-10-07T01:32:35.261Z,7.88
2023-10-07T01:35:12.463Z,8.52
2023-10-07T01:38:01.114Z,10.57
2023-10-07T01:40:44.700Z,8.43
2023-10-07T01:43:11.221Z,9.95
2023-10-07T01:45:40.966Z,12.15
2023-10-07T01:48:10.993Z,12.70
2023-10-07T01:50:41.064Z,12.20
2023-10-07T01:53:12.625Z,15.88
2023-10-07T01:55:44.236Z,19.17
2023-10-07T01:58:14.719Z,12.00
2023-10-07T02:00:45.797Z,8.80
2023-10-07T02:03:25.069Z,8.55
2023-10-07T02:05:53.268Z,13.13
2023-10-07T02:08:24.915Z,8.18
2023-10-07T02:10:59.871Z,9.48
2023-10-07T02:13:31.137Z,12.57
2023-10-07T02:15:58.092Z,13.40
2023-10-07T02:18:28.799Z,12.88
2023-10-07T02:21:14.928Z,13.43
2023-10-07T02:23:42.148Z,14.07
2023-10-07T02:26:16.123Z,10.27
2023-10-07T02:28:47.650Z,9.90
2023-10-07T02:31:18.582Z,10.20
2023-10-07T02:33:47.067Z,9.05
2023-10-07T02:36:28.996Z,12.98
2023-10-07T02:38:58.260Z,6.45
2023-10-07T02:41:32.250Z,11.05
2023-10-07T02:44:10.074Z,7.63
2023-10-07T02:46:37.207Z,8.70
2023-10-07T02:49:07.006Z,10.00
2023-10-07T02:51:35.083Z,9.95
2023-10-07T02:54:21.716Z,8.98
2023-10-07T02:56:56.645Z,9.77
2023-10-07T02:59:31.004Z,8.60
2023-10-07T03:02:14.515Z,10.73
2023-10-07T03:07:15.440Z,8.55
2023-10-07T03:09:54.071Z,7.93
2023-10-07T03:12:29.012Z,13.88
2023-10-07T03:15:16.066Z,12.85
2023-10-07T03:17:47.337Z,20.23
2023-10-07T03:20:23.086Z,23.17
2023-10-07T03:23:08.291Z,13.90
2023-10-07T03:25:55.190Z,13.48
2023-10-07T03:28:52.906Z,8.68
2023-10-07T03:31:21.448Z,11.18
2023-10-07T03:33:59.475Z,8.25
2023-10-07T03:36:41.995Z,17.00
2023-10-07T03:39:10.586Z,12.80
2023-10-07T03:41:42.673Z,11.77
2023-10-07T03:44:09.502Z,8.90
2023-10-07T03:46:36.589Z,9.40
2023-10-07T03:49:07.813Z,9.25
2023-10-07T03:51:36.366Z,9.07
2023-10-07T03:54:05.261Z,6.43
2023-10-07T03:56:32.616Z,10.23
2023-10-07T03:59:01.234Z,7.85
2023-10-07T04:01:28.378Z,7.03
2023-10-07T04:04:00.669Z,10.52
2023-10-07T04:06:35.756Z,10.20
2023-10-07T04:09:13.089Z,11.40
2023-10-07T04:11:45.914Z,11.55
2023-10-07T04:14:28.870Z,8.55
2023-10-07T04:17:01.411Z,10.20
2023-10-07T04:19:28.468Z,13.77
2023-10-07T04:21:56.314Z,12.50
2023-10-07T04:24:29.887Z,12.07
2023-10-07T04:27:03.115Z,11.18
2023-10-07T04:29:31.114Z,10.48
2023-10-07T04:31:59.221Z,14.63
2023-10-07T04:34:34.445Z,10.18
2023-10-07T04:37:03.727Z,9.85
2023-10-07T04:40:00.793Z,8.70
2023-10-07T04:42:48.051Z,11.95
2023-10-07T04:45:37.844Z,15.02
2023-10-07T04:48:25.678Z,12.05
2023-10-07T04:51:04.958Z,13.65
2023-10-07T04:53:41.677Z,14.43
2023-10-07T04:56:10.354Z,11.60
2023-10-07T04:58:41.799Z,16.02
2023-10-07T05:01:31.837Z,15.35
2023-10-07T05:03:59.928Z,19.67
2023-10-07T05:06:26.882Z,19.02
2023-10-07T05:08:54.239Z,13.13
2023-10-07T05:11:20.771Z,9.85
2023-10-07T05:13:48.318Z,9.02
2023-10-07T05:16:16.253Z,11.65
2023-10-07T05:18:43.397Z,10.93
2023-10-07T05:21:10.108Z,11.88
2023-10-07T05:23:38.200Z,11.45
2023-10-07T05:26:05.032Z,11.88
2023-10-07T05:28:34.824Z,17.80
2023-10-07T05:31:04.455Z,14.48
2023-10-07T05:33:35.394Z,13.02
2023-10-07T05:36:15.794Z,12.57
2023-10-07T05:38:45.539Z,10.20
2023-10-07T05:41:16.212Z,9.00
2023-10-07T05:43:45.831Z,10.32
2023-10-07T05:46:12.860Z,12.57
2023-10-07T05:48:41.227Z,9.88
2023-10-07T05:51:09.647Z,13.65
2023-10-07T05:53:39.957Z,10.48
2023-10-07T05:56:07.865Z,10.52
2023-10-07T05:58:38.698Z,11.98
2023-10-07T06:01:06.570Z,14.15
2023-10-07T06:03:33.941Z,14.93
2023-10-07T06:06:01.059Z,12.35
2023-10-07T06:08:28.870Z,13.25
2023-10-07T06:10:58.953Z,10.75
2023-10-07T06:13:27.591Z,23.52
2023-10-07T06:15:57.254Z,29.55
2023-10-07T06:18:24.709Z,21.30
2023-10-07T06:20:52.707Z,17.35
2023-10-07T06:23:20.557Z,9.50
2023-10-07T06:25:52.363Z,10.20
2023-10-07T06:28:29.095Z,11.88
2023-10-07T06:31:19.078Z,9.35
2023-10-07T06:34:00.668Z,14.85
2023-10-07T06:36:28.640Z,16.17
2023-10-07T06:38:59.923Z,24.50
2023-10-07T06:41:33.123Z,22.58
2023-10-07T06:44:10.757Z,21.25
2023-10-07T06:46:45.396Z,24.55
2023-10-07T06:49:19.542Z,26.23
2023-10-07T06:51:54.492Z,16.60
2023-10-07T06:54:36.445Z,9.30
2023-10-07T06:57:05.828Z,8.40
2023-10-07T06:59:32.427Z,9.32
2023-10-07T07:02:07.123Z,9.65
2023-10-07T07:04:36.793Z,8.75
2023-10-07T07:07:13.034Z,8.10
2023-10-07T07:09:46.937Z,8.75
2023-10-07T07:12:18.580Z,8.52
2023-10-07T07:14:52.932Z,10.90
2023-10-07T07:17:31.754Z,10.95
2023-10-07T07:20:10.410Z,7.82
2023-10-07T07:22:38.618Z,12.77
2023-10-07T07:25:11.692Z,8.00
2023-10-07T07:27:39.208Z,9.95
2023-10-07T07:30:06.442Z,6.88
2023-10-07T07:32:34.496Z,13.25
2023-10-07T07:35:04.109Z,14.48
2023-10-07T07:37:34.270Z,13.63
2023-10-07T07:40:30.879Z,13.55
2023-10-07T07:42:57.547Z,18.70
2023-10-07T07:45:28.145Z,16.20
2023-10-07T07:47:55.297Z,15.27
2023-10-07T07:50:23.014Z,10.52
2023-10-07T07:52:50.867Z,10.55
2023-10-07T07:55:17.810Z,7.90
2023-10-07T07:57:45.438Z,6.25
2023-10-07T08:00:21.521Z,8.13
2023-10-07T08:02:50.989Z,6.63
2023-10-07T08:05:17.998Z,9.15
2023-10-07T08:07:45.350Z,6.10
2023-10-07T08:10:12.224Z,11.43
2023-10-07T08:12:38.767Z,9.13
2023-10-07T08:15:15.630Z,9.32
2023-10-07T08:17:46.230Z,9.18
2023-10-07T08:20:13.701Z,12.80
2023-10-07T08:22:46.665Z,9.23
2023-10-07T08:28:19.431Z,7.03
2023-10-07T08:33:16.253Z,6.88
2023-10-07T08:35:49.229Z,7.03
2023-10-07T08:38:23.946Z,6.90
2023-10-07T08:41:11.377Z,11.65
2023-10-07T08:44:02.292Z,7.38
2023-10-07T08:46:29.491Z,6.63
2023-10-07T08:49:00.214Z,7.65
2023-10-07T08:51:30.956Z,7.38
2023-10-07T08:54:06.543Z,5.72
2023-10-07T08:56:37.259Z,7.13
2023-10-07T08:59:14.224Z,8.10
2023-10-07T09:01:43.873Z,7.97
2023-10-07T09:04:10.759Z,6.57
2023-10-07T09:06:46.743Z,6.03
2023-10-07T09:09:13.664Z,7.13
2023-10-07T09:11:41.963Z,8.50
2023-10-07T09:14:09.422Z,7.22
2023-10-07T09:16:36.364Z,6.97
2023-10-07T09:19:14.260Z,9.73
2023-10-07T09:21:45.983Z,10.23
2023-10-07T09:24:25.121Z,8.13
2023-10-07T09:26:58.989Z,7.68
2023-10-07T09:29:27.420Z,12.23
2023-10-07T09:32:08.949Z,10.00
2023-10-07T09:34:49.085Z,6.40
2023-10-07T09:37:23.125Z,6.93
2023-10-07T09:39:56.807Z,8.48
2023-10-07T09:42:37.780Z,6.57
2023-10-07T09:45:09.835Z,8.10
2023-10-07T09:47:39.741Z,8.73
2023-10-07T09:50:27.534Z,7.85
2023-10-07T09:53:18.748Z,6.75
2023-10-07T09:56:30.176Z,7.75
2023-10-07T09:59:36.579Z,8.93
2023-10-07T10:02:44.488Z,9.45
2023-10-07T10:05:36.464Z,6.43
2023-10-07T10:08:22.693Z,6.50
2023-10-07T10:10:51.176Z,7.68
2023-10-07T10:13:30.239Z,6.20
2023-10-07T10:16:05.624Z,8.75
2023-10-07T10:18:41.619Z,10.30
2023-10-07T10:21:13.887Z,6.97
2023-10-07T10:23:42.460Z,4.80
2023-10-07T10:26:26.058Z,4.75
2023-10-07T10:29:13.582Z,7.07
2023-10-07T10:31:45.123Z,6.50
2023-10-07T10:34:16.088Z,7.32
2023-10-07T10:36:49.968Z,6.22
2023-10-07T10:42:02.397Z,9.05
2023-10-07T10:44:36.950Z,7.80
2023-10-07T10:47:03.538Z,5.47
2023-10-07T10:49:31.831Z,3.78
2023-10-07T10:52:01.039Z,6.95
2023-10-07T10:54:27.632Z,4.28
2023-10-07T10:57:01.693Z,5.18
2023-10-07T10:59:38.715Z,5.35
2023-10-07T11:02:06.531Z,3.72
2023-10-07T11:04:33.387Z,4.72
2023-10-07T11:07:01.271Z,6.40
2023-10-07T11:09:37.053Z,5.25
2023-10-07T11:12:10.782Z,5.97
2023-10-07T11:14:39.573Z,9.43
2023-10-07T11:17:07.138Z,5.53
2023-10-07T11:19:41.677Z,4.97
2023-10-07T11:22:08.450Z,4.35
2023-10-07T11:24:36.357Z,8.00
2023-10-07T11:27:03.933Z,5.85
2023-10-07T11:29:33.796Z,4.57
2023-10-07T11:32:01.830Z,5.03
2023-10-07T11:34:37.589Z,6.35
2023-10-07T11:37:15.227Z,5.20
2023-10-07T11:39:46.074Z,4.97
2023-10-07T11:42:21.640Z,4.85
2023-10-07T11:44:57.818Z,5.70
2023-10-07T11:47:25.862Z,4.28
2023-10-07T11:49:52.819Z,5.65
2023-10-07T11:52:22.876Z,4.97
2023-10-07T11:54:50.158Z,5.57
2023-10-07T11:57:21.113Z,6.40
2023-10-07T11:59:47.802Z,5.85
2023-10-07T12:02:16.219Z,4.95
2023-10-07T12:04:50.166Z,5.10
2023-10-07T12:07:18.035Z,4.70
2023-10-07T12:09:48.369Z,5.38
2023-10-07T12:12:16.385Z,4.40
2023-10-07T12:14:43.184Z,4.63
2023-10-07T12:17:09.980Z,4.00
2023-10-07T12:19:40.445Z,4.90
2023-10-07T12:22:08.026Z,3.67
2023-10-07T12:24:35.778Z,5.78
2023-10-07T12:27:03.239Z,4.25
2023-10-07T12:29:30.127Z,4.32
2023-10-07T12:31:57.638Z,3.47
2023-10-07T12:34:25.224Z,4.97
2023-10-07T12:36:55.001Z,5.70
2023-10-07T12:39:24.421Z,5.85
2023-10-07T12:41:50.984Z,3.88
2023-10-07T12:44:18.149Z,4.22
2023-10-07T12:46:45.097Z,3.53
2023-10-07T12:49:15.245Z,3.35
2023-10-07T12:51:43.767Z,6.80
2023-10-07T12:54:11.272Z,4.80
2023-10-07T12:56:44.226Z,6.13
2023-10-07T12:59:19.909Z,3.40
2023-10-07T13:01:51.687Z,3.47
2023-10-07T13:04:26.810Z,4.72
2023-10-07T13:07:02.287Z,3.40
2023-10-07T13:09:32.975Z,5.10
2023-10-07T13:12:00.648Z,6.47
2023-10-07T13:14:30.387Z,7.20
2023-10-07T13:17:00.774Z,5.38
2023-10-07T13:19:28.085Z,3.92
2023-10-07T13:21:56.533Z,3.83
2023-10-07T13:24:23.626Z,4.20
2023-10-07T13:26:50.941Z,4.03
2023-10-07T13:29:17.642Z,6.25
2023-10-07T13:31:45.065Z,3.38
2023-10-07T13:34:12.169Z,4.00
2023-10-07T13:36:40.241Z,6.05
2023-10-07T13:39:16.829Z,5.30
2023-10-07T13:41:47.633Z,3.83
2023-10-07T13:44:16.106Z,6.75
2023-10-07T13:46:43.495Z,3.72
2023-10-07T13:49:17.038Z,4.25
2023-10-07T13:51:46.299Z,5.45
2023-10-07T13:54:23.738Z,3.78
2023-10-07T13:56:58.650Z,6.75
2023-10-07T13:59:26.340Z,7.32
2023-10-07T14:01:54.032Z,5.43
2023-10-07T14:04:21.130Z,4.10
2023-10-07T14:06:55.914Z,5.60
2023-10-07T14:09:26.550Z,4.13
2023-10-07T14:11:56.009Z,3.95
2023-10-07T14:14:23.543Z,5.03
2023-10-07T14:16:57.003Z,5.47
2023-10-07T14:19:26.274Z,4.43
2023-10-07T14:21:53.895Z,6.45
2023-10-07T14:24:21.671Z,4.00
2023-10-07T14:26:49.667Z,3.67
2023-10-07T14:29:16.978Z,4.13
2023-10-07T14:31:45.213Z,5.13
2023-10-07T14:34:13.331Z,4.60
2023-10-07T14:36:41.425Z,3.75
2023-10-07T14:39:13.955Z,6.05
2023-10-07T14:41:42.667Z,3.42
2023-10-07T14:44:10.198Z,6.03
2023-10-07T14:46:43.642Z,4.68
2023-10-07T14:49:10.872Z,4.32
2023-10-07T14:51:38.115Z,4.70
2023-10-07T14:54:05.160Z,4.15
2023-10-07T14:56:31.803Z,5.07
2023-10-07T14:59:09.001Z,4.93
2023-10-07T15:01:35.932Z,5.32
2023-10-07T15:04:04.026Z,3.85
2023-10-07T15:06:34.045Z,4.43
2023-10-07T15:09:00.623Z,4.28
2023-10-07T15:11:27.228Z,4.32
2023-10-07T15:13:54.427Z,5.63
2023-10-07T15:16:22.194Z,6.07
2023-10-07T15:18:50.570Z,4.47
2023-10-07T15:21:18.592Z,6.10
2023-10-07T15:23:46.668Z,6.18
2023-10-07T15:26:20.066Z,4.13
2023-10-07T15:28:48.911Z,6.22
2023-10-07T15:31:24.660Z,5.13
2023-10-07T15:33:57.580Z,5.65
2023-10-07T15:36:25.337Z,7.70
2023-10-07T15:38:53.179Z,4.47
2023-10-07T15:41:23.197Z,5.07
2023-10-07T15:43:50.567Z,5.03
2023-10-07T15:46:18.432Z,4.38
2023-10-07T15:48:45.145Z,5.57
2023-10-07T15:51:12.422Z,5.13
2023-10-07T15:53:39.088Z,4.10
2023-10-07T15:56:11.104Z,4.60
2023-10-07T15:58:43.050Z,6.53
2023-10-07T16:01:12.188Z,6.50
2023-10-07T16:03:40.524Z,5.43
2023-10-07T16:06:08.984Z,7.53
2023-10-07T16:08:37.851Z,6.45
2023-10-07T16:11:09.475Z,5.30
2023-10-07T16:13:36.346Z,5.15
2023-10-07T16:16:11.915Z,6.95
2023-10-07T16:18:40.654Z,7.57
2023-10-07T16:21:15.329Z,5.82
2023-10-07T16:23:43.542Z,5.30
2023-10-07T16:26:13.646Z,7.03
2023-10-07T16:28:42.142Z,6.95
2023-10-07T16:31:10.253Z,5.18
2023-10-07T16:33:37.661Z,7.05
2023-10-07T16:36:05.632Z,6.70
2023-10-07T16:38:35.130Z,5.55
2023-10-07T16:41:02.739Z,8.40
2023-10-07T16:43:34.065Z,9.93
2023-10-07T16:46:03.389Z,7.28
2023-10-07T16:48:31.366Z,9.77
2023-10-07T16:51:00.545Z,8.50
2023-10-07T16:53:27.828Z,7.13
2023-10-07T16:55:55.383Z,5.10
2023-10-07T16:58:22.019Z,5.40
2023-10-07T17:00:48.638Z,4.35
2023-10-07T17:03:15.315Z,6.15
2023-10-07T17:05:42.103Z,5.40
2023-10-07T17:08:08.777Z,6.47
2023-10-07T17:10:40.259Z,5.70
2023-10-07T17:13:07.568Z,4.85
2023-10-07T17:15:41.899Z,7.25
2023-10-07T17:18:12.615Z,7.82
2023-10-07T17:20:40.956Z,8.70
2023-10-07T17:23:08.686Z,5.57
2023-10-07T17:25:36.618Z,6.03
2023-10-07T17:28:04.689Z,7.03
2023-10-07T17:30:32.434Z,7.28
2023-10-07T17:33:03.072Z,8.70
2023-10-07T17:35:30.336Z,5.45
2023-10-07T17:37:57.613Z,6.30
2023-10-07T17:40:24.552Z,7.88
2023-10-07T17:42:52.910Z,6.70
2023-10-07T17:45:19.631Z,8.57
2023-10-07T17:47:49.392Z,6.72
2023-10-07T17:50:19.079Z,5.07
2023-10-07T17:52:47.441Z,7.10
2023-10-07T17:55:14.527Z,5.75
2023-10-07T17:57:42.715Z,6.88
2023-10-07T18:00:11.345Z,7.07
2023-10-07T18:02:38.601Z,4.15
2023-10-07T18:05:06.122Z,5.07
2023-10-07T18:07:33.542Z,5.75
2023-10-07T18:10:00.144Z,8.65
2023-10-07T18:12:30.540Z,5.85
2023-10-07T18:17:23.821Z,8.98
2023-10-07T18:19:50.422Z,11.23
2023-10-07T18:22:17.600Z,8.40
2023-10-07T18:24:44.527Z,6.10
2023-10-07T18:27:12.512Z,9.00
2023-10-07T18:29:40.593Z,7.05
2023-10-07T18:32:08.143Z,8.00
2023-10-07T18:34:34.751Z,7.75
2023-10-07T18:37:01.333Z,6.25
2023-10-07T18:39:27.900Z,9.60
2023-10-07T18:41:54.512Z,10.52
2023-10-07T18:44:21.243Z,9.10
2023-10-07T18:46:48.241Z,6.15
2023-10-07T18:49:16.426Z,8.63
2023-10-07T18:51:43.134Z,8.40
2023-10-07T18:54:09.871Z,8.27
2023-10-07T18:56:36.912Z,8.43
2023-10-07T18:59:03.652Z,12.00
2023-10-07T19:01:30.312Z,9.20
2023-10-07T19:03:57.018Z,8.40
2023-10-07T19:06:24.481Z,14.57
2023-10-07T19:08:51.033Z,9.77
2023-10-07T19:11:18.992Z,10.93
2023-10-07T19:13:46.725Z,8.82
2023-10-07T19:16:16.088Z,10.10
2023-10-07T19:18:43.903Z,7.65
2023-10-07T19:21:13.353Z,7.53
2023-10-07T19:23:41.564Z,10.10
2023-10-07T19:26:11.896Z,7.55
2023-10-07T19:28:41.714Z,8.50
2023-10-07T19:31:13.851Z,9.02
2023-10-07T19:33:40.729Z,9.25
2023-10-07T19:36:08.669Z,9.35
2023-10-07T19:38:37.166Z,9.10
2023-10-07T19:41:03.990Z,9.45
2023-10-07T19:43:30.754Z,9.52
2023-10-07T19:45:57.289Z,8.63
2023-10-07T19:48:23.906Z,9.68
2023-10-07T19:50:57.914Z,7.35
2023-10-07T19:53:24.702Z,11.50
2023-10-07T19:55:51.276Z,6.85
2023-10-07T19:58:17.868Z,5.53
2023-10-07T20:00:45.319Z,8.68
2023-10-07T20:03:12.046Z,6.85
2023-10-07T20:05:39.367Z,7.63
2023-10-07T20:08:08.032Z,10.45
2023-10-07T20:10:34.825Z,7.32
2023-10-07T20:13:01.574Z,10.77
2023-10-07T20:15:28.253Z,7.40
2023-10-07T20:17:55.247Z,9.02
2023-10-07T20:20:22.028Z,9.90
2023-10-07T20:22:48.575Z,9.07
2023-10-07T20:25:15.050Z,7.00
2023-10-07T20:27:41.783Z,7.68
2023-10-07T20:30:08.600Z,7.95
2023-10-07T20:32:35.884Z,6.60
2023-10-07T20:35:09.612Z,12.55
2023-10-07T20:37:36.430Z,6.88
2023-10-07T20:40:05.587Z,9.60
2023-10-07T20:42:33.388Z,9.23
2023-10-07T20:45:00.353Z,8.02
2023-10-07T20:47:27.016Z,9.02
2023-10-07T20:49:53.851Z,9.07
2023-10-07T20:52:20.474Z,8.70
2023-10-07T20:54:47.009Z,7.40
2023-10-07T20:57:15.987Z,8.48
2023-10-07T20:59:43.220Z,7.80
2023-10-07T21:02:09.862Z,8.52
2023-10-07T21:04:36.822Z,7.95
2023-10-07T21:07:04.008Z,6.90
2023-10-07T21:09:30.640Z,8.70
2023-10-07T21:11:57.256Z,9.02
2023-10-07T21:14:23.816Z,8.73
2023-10-07T21:16:50.341Z,7.13
2023-10-07T21:19:16.820Z,8.63
2023-10-07T21:21:46.150Z,8.38
2023-10-07T21:24:12.678Z,7.97
2023-10-07T21:26:39.400Z,8.55
2023-10-07T21:29:08.832Z,9.93
2023-10-07T21:31:35.541Z,12.20
2023-10-07T21:34:03.624Z,7.05
2023-10-07T21:36:30.395Z,9.48
2023-10-07T21:38:57.122Z,9.23
2023-10-07T21:41:23.781Z,8.60
2023-10-07T21:43:50.407Z,7.15
2023-10-07T21:46:20.213Z,6.80
2023-10-07T21:48:47.358Z,9.40
2023-10-07T21:51:16.360Z,7.50
2023-10-07T21:53:42.964Z,9.40
2023-10-07T21:56:12.146Z,6.70
2023-10-07T21:58:38.853Z,6.70
2023-10-07T22:01:18.815Z,7.35
2023-10-07T22:03:49.014Z,7.80
2023-10-07T22:06:15.937Z,8.80
2023-10-07T22:08:43.371Z,11.80
2023-10-07T22:11:11.222Z,9.98
2023-10-07T22:13:38.875Z,6.90
2023-10-07T22:16:09.083Z,11.00
2023-10-07T22:18:35.919Z,10.98
2023-10-07T22:21:04.644Z,9.45
2023-10-07T22:23:31.654Z,10.07
2023-10-07T22:25:58.467Z,9.52
2023-10-07T22:28:27.745Z,5.85
2023-10-07T22:30:55.101Z,5.00
2023-10-07T22:33:23.393Z,6.25
2023-10-07T22:35:50.800Z,7.25
2023-10-07T22:38:19.285Z,7.35
2023-10-07T22:41:14.068Z,8.23
2023-10-07T22:43:40.643Z,9.73
2023-10-07T22:46:08.858Z,5.68
2023-10-07T22:48:36.858Z,7.43
2023-10-07T22:51:22.553Z,5.68
2023-10-07T22:54:02.722Z,9.45
2023-10-07T22:56:32.605Z,6.72
2023-10-07T22:59:02.916Z,6.65
2023-10-07T23:01:38.480Z,6.53
2023-10-07T23:04:16.720Z,7.55
2023-10-07T23:07:00.962Z,12.07
2023-10-07T23:09:30.220Z,9.98
2023-10-07T23:11:56.922Z,6.93
2023-10-07T23:14:27.101Z,8.80
2023-10-07T23:16:56.864Z,9.48
2023-10-07T23:19:25.012Z,13.52
2023-10-07T23:21:52.436Z,10.23
2023-10-07T23:24:37.926Z,8.10
2023-10-07T23:27:07.755Z,6.70
2023-10-07T23:29:58.837Z,9.50
2023-10-07T23:32:26.160Z,9.38
2023-10-07T23:35:00.958Z,10.10
2023-10-07T23:37:31.448Z,8.63
2023-10-07T23:40:12.151Z,13.45
2023-10-07T23:42:38.959Z,9.75
2023-10-07T23:45:08.626Z,10.27
2023-10-07T23:47:35.683Z,8.88
2023-10-07T23:50:02.537Z,10.05
2023-10-07T23:52:29.161Z,11.48
2023-10-07T23:54:58.897Z,11.13
2023-10-07T23:57:31.022Z,25.98
2023-10-07T23:59:58.772Z,23.40
